• Join FlightAware (Why Join?)
  • Login
  • US Flag 
12:39PM EDT


 

Airport Tracker/Info


-or-


 

Live Flight TrackerFlight Track Log ✈ N862FE ✈ 29-Jun-2013 ✈ KPKB - KIND

Flight Track Log - Related Links

Times and Time Zones

All times are in EDT time to prevent confusion due to time zone crossing. See the N862FE flight status page for this flight to view local times or setup timezone preferences in your user account.

Time Position Orientation Groundspeed Altitude Reporting Facility
EDT Latitude Longitude Course Direction KTS MPH feet Rate Location/Type
08:48AM 39.3481 -81.4781 277° West 113 130 2,100  Level Indianapolis Center
08:49AM 39.3528 -81.5169 279° West 111 128 3,000 840 Climbing Indianapolis Center
08:50AM 39.3564 -81.5578 277° West 112 129 3,900 900 Climbing Indianapolis Center
08:51AM 39.3594 -81.5978 276° West 113 130 4,900 960 Climbing Indianapolis Center
08:52AM 39.3616 -81.7435 277° West  Level FlightAware Approximate
08:52AM 39.3631 -81.6369 277° West 110 127 5,900  Level Indianapolis Center
08:53AM 39.3662 -81.7953 277° West  Level FlightAware Approximate
08:53AM 39.3664 -81.6836 275° West 109 125 6,900  Level Indianapolis Center
08:54AM 39.3703 -81.7228 277° West 110 127 7,800 780 Climbing Indianapolis Center
08:55AM 39.3731 -81.7622 275° West 110 127 8,600 780 Climbing Indianapolis Center
08:56AM 39.3756 -81.8006 275° West 108 124 9,400 720 Climbing Indianapolis Center
08:57AM 39.3797 -81.8406 278° West 112 129 10,100 300 Climbing Indianapolis Center
08:58AM 39.3850 -81.8908 278° West 139 160 10,100  Level Indianapolis Center
08:59AM 39.3903 -81.9450 277° West 151 174 10,100  Level Indianapolis Center
09:00AM 39.3953 -82.0014 277° West 156 180 10,100 -60 Level Indianapolis Center
09:01AM 39.4006 -82.0522 278° West 144 166 10,000  Descending Indianapolis Center
09:02AM 39.4064 -82.1028 279° West 142 163 10,100 -60 Climbing Indianapolis Center
09:03AM 39.4100 -82.1556 275° West 144 166 9,900 -120 Descending Indianapolis Center
09:03AM 39.4122 -82.1775 277° West 144 166 10,000 60 Climbing Indianapolis Center
09:04AM 39.4161 -82.2156 278° West 142 163 10,000  Level Indianapolis Center
09:05AM 39.4217 -82.2678 278° West 146 168 10,000  Level Indianapolis Center
09:06AM 39.4256 -82.3194 276° West 144 166 10,000  Level Indianapolis Center
09:07AM 39.4306 -82.3714 277° West 147 169 10,000  Level Indianapolis Center
09:09AM 39.4367 -82.4411 276° West 145 167 10,000  Level Indianapolis Center
09:09AM 39.4403 -82.4769 277° West 144 166 10,000  Level Indianapolis Center
09:10AM 39.4447 -82.5283 276° West 143 165 10,000  Level Indianapolis Center
09:11AM 39.4492 -82.5786 277° West 140 161 10,000  Level Indianapolis Center
09:12AM 39.4531 -82.6297 276° West 140 161 10,000  Level Indianapolis Center
09:13AM 39.4572 -82.6794 276° West 139 160 10,000  Level Indianapolis Center
09:14AM 39.4614 -82.7311 276° West 142 163 10,000  Level Indianapolis Center
09:16AM 39.4672 -82.7897 277° West 140 161 10,000  Level Indianapolis Center
09:17AM 39.4708 -82.8419 275° West 141 162 10,000  Level Indianapolis Center
09:18AM 39.4761 -82.8969 277° West 143 165 10,000  Level Indianapolis Center
09:19AM 39.4800 -82.9439 276° West 144 166 10,000  Level Indianapolis Center
09:20AM 39.4836 -82.9931 275° West 141 162 10,000  Level Indianapolis Center
09:21AM 39.4889 -83.0450 278° West 141 162 10,000  Level Indianapolis Center
09:22AM 39.4931 -83.0964 276° West 142 163 10,000  Level Indianapolis Center
09:23AM 39.4969 -83.1606 275° West 142 163 10,000  Level Indianapolis Center
09:24AM 39.5017 -83.1992 279° West 143 165 10,000  Level Indianapolis Center
09:25AM 39.5064 -83.2572 276° West 142 163 10,000  Level Indianapolis Center
09:26AM 39.5097 -83.3092 275° West 142 163 10,000  Level Indianapolis Center
09:27AM 39.5153 -83.3589 278° West 142 163 10,000  Level Indianapolis Center
09:28AM 39.5183 -83.4111 274° West 145 167 10,000  Level Indianapolis Center
09:29AM 39.5236 -83.4636 277° West 143 165 10,000  Level Indianapolis Center
09:30AM 39.5253 -83.5100 273° West 145 167 10,000  Level Indianapolis Center
09:31AM 39.5322 -83.5681 279° West 143 165 10,000  Level Indianapolis Center
09:32AM 39.5353 -83.6203 274° West 144 166 10,000  Level Indianapolis Center
09:33AM 39.5400 -83.6761 276° West 145 167 10,000  Level Indianapolis Center
09:34AM 39.5450 -83.7306 277° West 144 166 10,000  Level Indianapolis Center
09:35AM 39.5481 -83.7828 274° West 145 167 10,000  Level Indianapolis Center
09:36AM 39.5511 -83.8347 274° West 145 167 10,000  Level Indianapolis Center
09:37AM 39.5544 -83.8844 275° West 146 168 10,000  Level Indianapolis Center
09:38AM 39.5594 -83.9369 277° West 148 170 10,000  Level Indianapolis Center
09:39AM 39.5625 -83.9889 274° West 146 168 10,000  Level Indianapolis Center
09:40AM 39.5686 -84.0458 278° West 146 168 10,000  Level Indianapolis Center
09:41AM 39.5714 -84.1047 274° West 146 168 10,000  Level Indianapolis Center
09:42AM 39.5747 -84.1517 275° West 147 169 10,000  Level Indianapolis Center
09:43AM 39.5797 -84.2042 277° West 145 167 10,000  Level Indianapolis Center
09:44AM 39.5847 -84.2658 276° West 145 167 10,000  Level Indianapolis Center
09:45AM 39.5869 -84.3142 273° West 147 169 10,000  Level Indianapolis Center
09:46AM 39.5917 -84.3667 277° West 148 170 10,000  Level Indianapolis Center
09:47AM 39.5944 -84.4189 274° West 148 170 10,000  Level Indianapolis Center
09:48AM 39.5989 -84.4769 276° West 147 169 10,000  Level Indianapolis Center
09:49AM 39.6031 -84.5347 275° West 149 171 10,000  Level Indianapolis Center
09:50AM 39.6078 -84.5875 277° West 150 173 10,000  Level Indianapolis Center
09:51AM 39.6125 -84.6419 276° West 148 170 10,000  Level Indianapolis Center
09:52AM 39.6164 -84.6950 275° West 146 168 10,000  Level Indianapolis Center
09:54AM 39.6206 -84.7586 275° West 147 169 10,000  Level Indianapolis Center
09:55AM 39.6242 -84.8119 275° West 149 171 10,000  Level Indianapolis Center
09:55AM 39.6258 -84.8603 273° West 148 170 10,000  Level Indianapolis Center
09:56AM 39.6311 -84.9078 278° West 150 173 10,000  Level Indianapolis Center
09:57AM 39.6347 -84.9683 274° West 148 170 10,000  Level Indianapolis Center
09:58AM 39.6389 -85.0264 275° West 148 170 10,000  Level Indianapolis Center
10:00AM 39.6406 -85.0756 273° West 148 170 10,000  Level Indianapolis Center
10:01AM 39.6453 -85.1383 276° West 147 169 10,000  Level Indianapolis Center
10:02AM 39.6494 -85.1922 276° West 149 171 10,000  Level Indianapolis Center
10:03AM 39.6522 -85.2436 274° West 145 167 10,000  Level Indianapolis Center
10:04AM 39.6558 -85.2972 275° West 149 171 10,000 -300 Level Indianapolis Center
10:05AM 39.6575 -85.3517 272° West 152 175 9,500 -540 Descending Indianapolis Center
10:06AM 39.6631 -85.4086 277° West 158 182 9,000 -600 Descending Indianapolis Center
10:07AM 39.6700 -85.4664 279° West 161 185 8,300 -780 Descending Indianapolis Center
10:08AM 39.6956 -85.5297 298° West 164 189 7,500 -780 Descending Indianapolis Center
10:09AM 39.7203 -85.5797 303° West 166 191 6,800 -780 Descending Indianapolis Center
10:10AM 39.7414 -85.6353 296° West 169 194 6,000 -780 Descending Indianapolis Center
10:11AM 39.7600 -85.6897 294° West 168 193 5,300 -660 Descending Indianapolis Center
10:12AM 39.7806 -85.7436 296° West 167 192 4,700 -540 Descending Indianapolis Center
10:13AM 39.8025 -85.7953 299° West 166 191 4,200 -420 Descending Indianapolis Center
10:14AM 39.8269 -85.8558 298° West 162 186 3,900 -180 Descending Indianapolis Center
10:15AM 39.8392 -85.9067 287° West 157 181 3,900  Level Indianapolis Center
10:16AM 39.8408 -85.9631 272° West 157 181 3,900  Level Indianapolis Center
10:17AM 39.8422 -86.0194 272° West 156 180 3,900  Level Indianapolis Center
10:18AM 39.8442 -86.0753 273° West 156 180 3,900  Level Indianapolis Center
10:19AM 39.8292 -86.1281 250° West 160 184 3,900 -540 Level Indianapolis Center
10:20AM 39.8011 -86.1750 232° Southwest 166 191 2,900 -1,020 Descending Indianapolis Center
10:21AM 39.7600 -86.2286 225° Southwest 171 197 1,900 -900 Descending Indianapolis Center
10:22AM 39.7319 -86.2656 225° Southwest 172 198 1,100 -540 Descending Indianapolis Center
10:23AM 39.7156 -86.2836 220° Southwest 106 122 800 -300 Descending Indianapolis Center
10:25AM 39.7167 -86.2833 270° West  Level FlightAware Approximate